sensor_id;sensor_type;location;lat;lon;timestamp;temperature;humidity
4306;DHT22;2166;49.926;8.608;2022-11-20T00:00:39;3.40;84.60
4306;DHT22;2166;49.926;8.608;2022-11-20T00:03:09;3.40;84.60
4306;DHT22;2166;49.926;8.608;2022-11-20T00:05:36;3.30;84.50
4306;DHT22;2166;49.926;8.608;2022-11-20T00:08:05;3.30;84.60
4306;DHT22;2166;49.926;8.608;2022-11-20T00:10:35;3.30;84.50
4306;DHT22;2166;49.926;8.608;2022-11-20T00:13:04;3.30;84.60
4306;DHT22;2166;49.926;8.608;2022-11-20T00:15:32;3.30;84.70
4306;DHT22;2166;49.926;8.608;2022-11-20T00:18:00;3.40;84.80
4306;DHT22;2166;49.926;8.608;2022-11-20T00:20:29;3.40;84.70
4306;DHT22;2166;49.926;8.608;2022-11-20T00:22:57;3.50;84.80
4306;DHT22;2166;49.926;8.608;2022-11-20T00:25:26;3.50;84.70
4306;DHT22;2166;49.926;8.608;2022-11-20T00:27:54;3.50;84.60
4306;DHT22;2166;49.926;8.608;2022-11-20T00:30:22;3.50;84.60
4306;DHT22;2166;49.926;8.608;2022-11-20T00:32:50;3.60;84.60
4306;DHT22;2166;49.926;8.608;2022-11-20T00:35:18;3.60;84.60
4306;DHT22;2166;49.926;8.608;2022-11-20T00:37:47;3.50;84.50
4306;DHT22;2166;49.926;8.608;2022-11-20T00:40:15;3.50;84.40
4306;DHT22;2166;49.926;8.608;2022-11-20T00:42:43;3.50;84.60
4306;DHT22;2166;49.926;8.608;2022-11-20T00:45:11;3.50;84.40
4306;DHT22;2166;49.926;8.608;2022-11-20T00:47:39;3.50;84.50
4306;DHT22;2166;49.926;8.608;2022-11-20T00:50:07;3.50;84.50
4306;DHT22;2166;49.926;8.608;2022-11-20T00:52:36;3.50;84.50
4306;DHT22;2166;49.926;8.608;2022-11-20T00:55:05;3.50;84.50
4306;DHT22;2166;49.926;8.608;2022-11-20T00:57:33;3.50;84.50
4306;DHT22;2166;49.926;8.608;2022-11-20T01:00:01;3.60;84.50
4306;DHT22;2166;49.926;8.608;2022-11-20T01:02:29;3.60;84.40
4306;DHT22;2166;49.926;8.608;2022-11-20T01:04:58;3.60;84.30
4306;DHT22;2166;49.926;8.608;2022-11-20T01:07:26;3.50;84.30
4306;DHT22;2166;49.926;8.608;2022-11-20T01:09:54;3.60;84.30
4306;DHT22;2166;49.926;8.608;2022-11-20T01:12:24;3.60;84.40
4306;DHT22;2166;49.926;8.608;2022-11-20T01:14:52;3.60;84.40
4306;DHT22;2166;49.926;8.608;2022-11-20T01:17:20;3.60;84.40
4306;DHT22;2166;49.926;8.608;2022-11-20T01:19:48;3.60;84.40
4306;DHT22;2166;49.926;8.608;2022-11-20T01:22:16;3.60;84.40
4306;DHT22;2166;49.926;8.608;2022-11-20T01:24:44;3.60;84.40
4306;DHT22;2166;49.926;8.608;2022-11-20T01:27:12;3.70;84.40
4306;DHT22;2166;49.926;8.608;2022-11-20T01:29:41;3.70;84.50
4306;DHT22;2166;49.926;8.608;2022-11-20T01:32:09;3.80;84.40
4306;DHT22;2166;49.926;8.608;2022-11-20T01:34:37;3.80;84.30
4306;DHT22;2166;49.926;8.608;2022-11-20T01:37:05;3.80;84.30
4306;DHT22;2166;49.926;8.608;2022-11-20T01:39:33;3.80;84.30
4306;DHT22;2166;49.926;8.608;2022-11-20T01:42:01;3.80;84.30
4306;DHT22;2166;49.926;8.608;2022-11-20T01:44:54;3.80;84.30
4306;DHT22;2166;49.926;8.608;2022-11-20T01:47:27;3.80;84.30
4306;DHT22;2166;49.926;8.608;2022-11-20T01:49:56;3.90;84.30
4306;DHT22;2166;49.926;8.608;2022-11-20T01:52:27;3.90;84.10
4306;DHT22;2166;49.926;8.608;2022-11-20T01:54:58;3.90;84.10
4306;DHT22;2166;49.926;8.608;2022-11-20T01:57:29;3.90;84.20
4306;DHT22;2166;49.926;8.608;2022-11-20T02:00:02;3.90;84.10
4306;DHT22;2166;49.926;8.608;2022-11-20T02:02:38;3.90;84.10
4306;DHT22;2166;49.926;8.608;2022-11-20T02:05:09;3.90;84.10
4306;DHT22;2166;49.926;8.608;2022-11-20T02:07:39;3.90;84.10
4306;DHT22;2166;49.926;8.608;2022-11-20T02:10:07;3.90;84.10
4306;DHT22;2166;49.926;8.608;2022-11-20T02:12:35;3.90;84.20
4306;DHT22;2166;49.926;8.608;2022-11-20T02:15:22;3.90;84.20
4306;DHT22;2166;49.926;8.608;2022-11-20T02:17:56;3.80;84.10
4306;DHT22;2166;49.926;8.608;2022-11-20T02:20:27;3.80;84.20
4306;DHT22;2166;49.926;8.608;2022-11-20T02:22:56;3.80;84.20
4306;DHT22;2166;49.926;8.608;2022-11-20T02:25:27;3.80;84.30
4306;DHT22;2166;49.926;8.608;2022-11-20T02:27:55;3.70;84.30
4306;DHT22;2166;49.926;8.608;2022-11-20T02:30:23;3.80;84.40
4306;DHT22;2166;49.926;8.608;2022-11-20T02:32:51;3.70;84.30
4306;DHT22;2166;49.926;8.608;2022-11-20T02:38:06;3.80;84.50
4306;DHT22;2166;49.926;8.608;2022-11-20T02:40:35;3.80;84.40
4306;DHT22;2166;49.926;8.608;2022-11-20T02:43:03;3.80;84.40
4306;DHT22;2166;49.926;8.608;2022-11-20T02:45:31;3.70;84.30
4306;DHT22;2166;49.926;8.608;2022-11-20T02:47:59;3.70;84.30
4306;DHT22;2166;49.926;8.608;2022-11-20T02:50:27;3.80;84.40
4306;DHT22;2166;49.926;8.608;2022-11-20T02:52:55;3.90;84.50
4306;DHT22;2166;49.926;8.608;2022-11-20T02:55:23;3.90;84.30
4306;DHT22;2166;49.926;8.608;2022-11-20T02:57:52;3.90;84.30
4306;DHT22;2166;49.926;8.608;2022-11-20T03:00:20;3.90;84.30
4306;DHT22;2166;49.926;8.608;2022-11-20T03:02:48;3.90;84.30
4306;DHT22;2166;49.926;8.608;2022-11-20T03:05:16;3.90;84.30
4306;DHT22;2166;49.926;8.608;2022-11-20T03:07:44;3.90;84.20
4306;DHT22;2166;49.926;8.608;2022-11-20T03:10:12;3.80;84.20
4306;DHT22;2166;49.926;8.608;2022-11-20T03:12:39;3.80;84.10
4306;DHT22;2166;49.926;8.608;2022-11-20T03:15:09;3.80;84.30
4306;DHT22;2166;49.926;8.608;2022-11-20T03:17:38;3.90;84.40
4306;DHT22;2166;49.926;8.608;2022-11-20T03:20:06;3.90;84.40
4306;DHT22;2166;49.926;8.608;2022-11-20T03:22:35;3.90;84.40
4306;DHT22;2166;49.926;8.608;2022-11-20T03:25:04;3.90;84.30
4306;DHT22;2166;49.926;8.608;2022-11-20T03:27:32;3.90;84.30
4306;DHT22;2166;49.926;8.608;2022-11-20T03:30:00;4.00;84.40
4306;DHT22;2166;49.926;8.608;2022-11-20T03:32:29;4.00;84.30
4306;DHT22;2166;49.926;8.608;2022-11-20T03:34:57;4.00;84.30
4306;DHT22;2166;49.926;8.608;2022-11-20T03:37:25;4.10;84.30
4306;DHT22;2166;49.926;8.608;2022-11-20T03:39:53;4.10;84.20
4306;DHT22;2166;49.926;8.608;2022-11-20T03:42:21;4.00;84.10
4306;DHT22;2166;49.926;8.608;2022-11-20T03:45:07;4.00;84.30
4306;DHT22;2166;49.926;8.608;2022-11-20T03:47:36;4.00;84.30
4306;DHT22;2166;49.926;8.608;2022-11-20T03:50:04;4.00;84.30
4306;DHT22;2166;49.926;8.608;2022-11-20T03:52:32;4.00;84.40
4306;DHT22;2166;49.926;8.608;2022-11-20T03:55:00;4.00;84.40
4306;DHT22;2166;49.926;8.608;2022-11-20T03:57:28;4.00;84.30
4306;DHT22;2166;49.926;8.608;2022-11-20T03:59:56;4.10;84.30
4306;DHT22;2166;49.926;8.608;2022-11-20T04:02:24;4.10;84.30
4306;DHT22;2166;49.926;8.608;2022-11-20T04:04:53;4.10;84.20
4306;DHT22;2166;49.926;8.608;2022-11-20T04:07:28;4.10;84.10
4306;DHT22;2166;49.926;8.608;2022-11-20T04:09:56;4.10;84.20
4306;DHT22;2166;49.926;8.608;2022-11-20T04:12:24;4.10;84.10
4306;DHT22;2166;49.926;8.608;2022-11-20T04:14:52;4.10;84.20
4306;DHT22;2166;49.926;8.608;2022-11-20T04:17:20;4.10;84.20
4306;DHT22;2166;49.926;8.608;2022-11-20T04:19:48;4.20;84.20
4306;DHT22;2166;49.926;8.608;2022-11-20T04:22:17;4.20;84.20
4306;DHT22;2166;49.926;8.608;2022-11-20T04:24:45;4.20;84.20
4306;DHT22;2166;49.926;8.608;2022-11-20T04:27:13;4.20;84.20
4306;DHT22;2166;49.926;8.608;2022-11-20T04:29:41;4.20;84.10
4306;DHT22;2166;49.926;8.608;2022-11-20T04:32:09;4.20;84.00
4306;DHT22;2166;49.926;8.608;2022-11-20T04:34:36;4.20;84.00
4306;DHT22;2166;49.926;8.608;2022-11-20T04:37:05;4.20;84.00
4306;DHT22;2166;49.926;8.608;2022-11-20T04:39:34;4.20;84.00
4306;DHT22;2166;49.926;8.608;2022-11-20T04:42:02;4.20;83.90
4306;DHT22;2166;49.926;8.608;2022-11-20T04:44:48;4.20;84.00
4306;DHT22;2166;49.926;8.608;2022-11-20T04:47:16;4.20;84.00
4306;DHT22;2166;49.926;8.608;2022-11-20T04:49:44;4.10;84.00
4306;DHT22;2166;49.926;8.608;2022-11-20T04:52:12;4.10;83.90
4306;DHT22;2166;49.926;8.608;2022-11-20T04:54:41;4.10;84.10
4306;DHT22;2166;49.926;8.608;2022-11-20T04:57:09;4.10;83.90
4306;DHT22;2166;49.926;8.608;2022-11-20T04:59:41;4.10;83.90
4306;DHT22;2166;49.926;8.608;2022-11-20T05:02:09;4.10;84.10
4306;DHT22;2166;49.926;8.608;2022-11-20T05:04:37;4.20;84.10
4306;DHT22;2166;49.926;8.608;2022-11-20T05:07:04;4.20;84.00
4306;DHT22;2166;49.926;8.608;2022-11-20T05:09:32;4.20;83.90
4306;DHT22;2166;49.926;8.608;2022-11-20T05:12:02;4.20;84.00
4306;DHT22;2166;49.926;8.608;2022-11-20T05:14:29;4.20;84.10
4306;DHT22;2166;49.926;8.608;2022-11-20T05:16:58;4.20;84.10
4306;DHT22;2166;49.926;8.608;2022-11-20T05:19:25;4.20;84.10
4306;DHT22;2166;49.926;8.608;2022-11-20T05:21:53;4.30;84.20
4306;DHT22;2166;49.926;8.608;2022-11-20T05:24:26;4.20;84.10
4306;DHT22;2166;49.926;8.608;2022-11-20T05:26:53;4.30;84.10
4306;DHT22;2166;49.926;8.608;2022-11-20T05:29:23;4.30;84.30
4306;DHT22;2166;49.926;8.608;2022-11-20T05:31:51;4.30;84.20
4306;DHT22;2166;49.926;8.608;2022-11-20T05:34:18;4.30;84.10
4306;DHT22;2166;49.926;8.608;2022-11-20T05:36:46;4.40;84.10
4306;DHT22;2166;49.926;8.608;2022-11-20T05:39:14;4.30;84.00
4306;DHT22;2166;49.926;8.608;2022-11-20T05:41:42;4.30;84.00
4306;DHT22;2166;49.926;8.608;2022-11-20T05:44:10;4.30;84.00
4306;DHT22;2166;49.926;8.608;2022-11-20T05:46:39;4.30;84.00
4306;DHT22;2166;49.926;8.608;2022-11-20T05:49:07;4.30;84.10
4306;DHT22;2166;49.926;8.608;2022-11-20T05:51:35;4.30;84.10
4306;DHT22;2166;49.926;8.608;2022-11-20T05:54:05;4.30;84.10
4306;DHT22;2166;49.926;8.608;2022-11-20T05:56:36;4.30;84.10
4306;DHT22;2166;49.926;8.608;2022-11-20T05:59:04;4.30;84.10
4306;DHT22;2166;49.926;8.608;2022-11-20T06:01:34;4.30;84.00
4306;DHT22;2166;49.926;8.608;2022-11-20T06:04:04;4.30;84.00
4306;DHT22;2166;49.926;8.608;2022-11-20T06:06:32;4.30;84.10
4306;DHT22;2166;49.926;8.608;2022-11-20T06:09:00;4.30;84.10
4306;DHT22;2166;49.926;8.608;2022-11-20T06:11:28;4.20;84.00
4306;DHT22;2166;49.926;8.608;2022-11-20T06:13:56;4.20;84.10
4306;DHT22;2166;49.926;8.608;2022-11-20T06:16:25;4.20;84.10
4306;DHT22;2166;49.926;8.608;2022-11-20T06:18:53;4.30;84.10
4306;DHT22;2166;49.926;8.608;2022-11-20T06:21:22;4.30;84.20
4306;DHT22;2166;49.926;8.608;2022-11-20T06:23:50;4.30;84.10
4306;DHT22;2166;49.926;8.608;2022-11-20T06:26:20;4.20;84.00
4306;DHT22;2166;49.926;8.608;2022-11-20T06:28:48;4.10;84.10
4306;DHT22;2166;49.926;8.608;2022-11-20T06:31:17;4.10;84.20
4306;DHT22;2166;49.926;8.608;2022-11-20T06:33:45;4.10;84.20
4306;DHT22;2166;49.926;8.608;2022-11-20T06:36:14;4.20;84.30
4306;DHT22;2166;49.926;8.608;2022-11-20T06:38:43;4.20;84.30
4306;DHT22;2166;49.926;8.608;2022-11-20T06:41:12;4.20;84.30
4306;DHT22;2166;49.926;8.608;2022-11-20T06:43:41;4.20;84.10
4306;DHT22;2166;49.926;8.608;2022-11-20T06:46:09;4.20;84.20
4306;DHT22;2166;49.926;8.608;2022-11-20T06:48:38;4.30;84.30
4306;DHT22;2166;49.926;8.608;2022-11-20T06:51:06;4.30;84.10
4306;DHT22;2166;49.926;8.608;2022-11-20T06:53:34;4.30;84.10
4306;DHT22;2166;49.926;8.608;2022-11-20T06:56:03;4.30;84.00
4306;DHT22;2166;49.926;8.608;2022-11-20T06:58:32;4.30;84.10
4306;DHT22;2166;49.926;8.608;2022-11-20T07:01:00;4.30;84.00
4306;DHT22;2166;49.926;8.608;2022-11-20T07:03:29;4.30;84.00
4306;DHT22;2166;49.926;8.608;2022-11-20T07:05:56;4.30;84.10
4306;DHT22;2166;49.926;8.608;2022-11-20T07:08:25;4.40;84.20
4306;DHT22;2166;49.926;8.608;2022-11-20T07:10:56;4.40;84.20
4306;DHT22;2166;49.926;8.608;2022-11-20T07:13:25;4.40;84.10
4306;DHT22;2166;49.926;8.608;2022-11-20T07:15:53;4.40;84.00
4306;DHT22;2166;49.926;8.608;2022-11-20T07:18:21;4.40;84.10
4306;DHT22;2166;49.926;8.608;2022-11-20T07:20:49;4.40;84.10
4306;DHT22;2166;49.926;8.608;2022-11-20T07:23:17;4.40;84.10
4306;DHT22;2166;49.926;8.608;2022-11-20T07:25:45;4.40;84.10
4306;DHT22;2166;49.926;8.608;2022-11-20T07:28:13;4.50;84.10
4306;DHT22;2166;49.926;8.608;2022-11-20T07:30:42;4.50;84.10
4306;DHT22;2166;49.926;8.608;2022-11-20T07:33:10;4.50;84.00
4306;DHT22;2166;49.926;8.608;2022-11-20T07:35:38;4.50;84.10
4306;DHT22;2166;49.926;8.608;2022-11-20T07:38:06;4.60;84.10
4306;DHT22;2166;49.926;8.608;2022-11-20T07:40:34;4.60;84.00
4306;DHT22;2166;49.926;8.608;2022-11-20T07:43:02;4.70;84.00
4306;DHT22;2166;49.926;8.608;2022-11-20T07:45:30;4.70;83.90
4306;DHT22;2166;49.926;8.608;2022-11-20T07:47:59;4.60;83.70
4306;DHT22;2166;49.926;8.608;2022-11-20T07:50:27;4.60;83.90
4306;DHT22;2166;49.926;8.608;2022-11-20T07:52:59;4.50;83.70
4306;DHT22;2166;49.926;8.608;2022-11-20T07:55:27;4.40;83.80
4306;DHT22;2166;49.926;8.608;2022-11-20T07:57:55;4.40;83.90
4306;DHT22;2166;49.926;8.608;2022-11-20T08:00:24;4.50;84.10
4306;DHT22;2166;49.926;8.608;2022-11-20T08:02:52;4.60;84.20
4306;DHT22;2166;49.926;8.608;2022-11-20T08:05:21;4.70;84.20
4306;DHT22;2166;49.926;8.608;2022-11-20T08:07:49;4.70;84.00
4306;DHT22;2166;49.926;8.608;2022-11-20T08:10:17;4.70;84.00
4306;DHT22;2166;49.926;8.608;2022-11-20T08:12:45;4.70;83.90
4306;DHT22;2166;49.926;8.608;2022-11-20T08:15:31;4.70;83.80
4306;DHT22;2166;49.926;8.608;2022-11-20T08:18:00;4.80;83.80
4306;DHT22;2166;49.926;8.608;2022-11-20T08:20:50;4.70;83.80
4306;DHT22;2166;49.926;8.608;2022-11-20T08:23:17;4.60;83.90
4306;DHT22;2166;49.926;8.608;2022-11-20T08:25:48;4.70;83.80
4306;DHT22;2166;49.926;8.608;2022-11-20T08:28:16;4.70;83.90
4306;DHT22;2166;49.926;8.608;2022-11-20T08:30:47;4.70;83.90
4306;DHT22;2166;49.926;8.608;2022-11-20T08:33:16;4.80;83.80
4306;DHT22;2166;49.926;8.608;2022-11-20T08:35:45;4.90;83.60
4306;DHT22;2166;49.926;8.608;2022-11-20T08:38:14;5.00;83.40
4306;DHT22;2166;49.926;8.608;2022-11-20T08:40:42;5.10;83.20
4306;DHT22;2166;49.926;8.608;2022-11-20T08:43:31;5.30;83.40
4306;DHT22;2166;49.926;8.608;2022-11-20T08:46:00;5.60;83.20
4306;DHT22;2166;49.926;8.608;2022-11-20T08:48:28;5.60;82.80
4306;DHT22;2166;49.926;8.608;2022-11-20T08:50:57;5.80;82.90
4306;DHT22;2166;49.926;8.608;2022-11-20T08:53:26;5.70;82.70
4306;DHT22;2166;49.926;8.608;2022-11-20T08:55:56;5.70;82.70
4306;DHT22;2166;49.926;8.608;2022-11-20T08:58:24;6.00;82.60
4306;DHT22;2166;49.926;8.608;2022-11-20T09:00:52;6.30;82.90
4306;DHT22;2166;49.926;8.608;2022-11-20T09:03:20;6.50;82.30
4306;DHT22;2166;49.926;8.608;2022-11-20T09:05:48;6.80;82.10
4306;DHT22;2166;49.926;8.608;2022-11-20T09:08:17;7.30;82.20
4306;DHT22;2166;49.926;8.608;2022-11-20T09:10:48;7.60;82.00
4306;DHT22;2166;49.926;8.608;2022-11-20T09:13:18;8.00;80.90
4306;DHT22;2166;49.926;8.608;2022-11-20T09:15:46;8.10;79.10
4306;DHT22;2166;49.926;8.608;2022-11-20T09:18:14;7.80;78.20
4306;DHT22;2166;49.926;8.608;2022-11-20T09:20:42;7.50;78.20
4306;DHT22;2166;49.926;8.608;2022-11-20T09:23:10;7.30;78.60
4306;DHT22;2166;49.926;8.608;2022-11-20T09:25:38;7.20;79.20
4306;DHT22;2166;49.926;8.608;2022-11-20T09:28:07;7.20;79.50
4306;DHT22;2166;49.926;8.608;2022-11-20T09:30:36;7.20;79.60
4306;DHT22;2166;49.926;8.608;2022-11-20T09:33:04;7.40;79.70
4306;DHT22;2166;49.926;8.608;2022-11-20T09:35:32;7.30;79.40
4306;DHT22;2166;49.926;8.608;2022-11-20T09:38:04;7.20;79.50
4306;DHT22;2166;49.926;8.608;2022-11-20T09:40:32;7.10;79.90
4306;DHT22;2166;49.926;8.608;2022-11-20T09:43:01;7.10;79.90
4306;DHT22;2166;49.926;8.608;2022-11-20T09:45:37;7.10;79.80
4306;DHT22;2166;49.926;8.608;2022-11-20T09:48:14;7.20;80.10
4306;DHT22;2166;49.926;8.608;2022-11-20T09:50:45;7.40;79.90
4306;DHT22;2166;49.926;8.608;2022-11-20T09:53:19;7.50;79.60
4306;DHT22;2166;49.926;8.608;2022-11-20T09:55:50;7.60;79.60
4306;DHT22;2166;49.926;8.608;2022-11-20T09:58:21;7.30;78.90
4306;DHT22;2166;49.926;8.608;2022-11-20T10:00:55;7.10;79.00
4306;DHT22;2166;49.926;8.608;2022-11-20T10:03:26;6.90;79.00
4306;DHT22;2166;49.926;8.608;2022-11-20T10:05:57;6.80;79.20
4306;DHT22;2166;49.926;8.608;2022-11-20T10:08:28;6.70;79.60
4306;DHT22;2166;49.926;8.608;2022-11-20T10:10:59;6.70;80.00
4306;DHT22;2166;49.926;8.608;2022-11-20T10:13:31;6.80;80.60
4306;DHT22;2166;49.926;8.608;2022-11-20T10:16:08;7.00;80.40
4306;DHT22;2166;49.926;8.608;2022-11-20T10:18:44;7.10;80.30
4306;DHT22;2166;49.926;8.608;2022-11-20T10:21:18;7.20;80.50
4306;DHT22;2166;49.926;8.608;2022-11-20T10:24:00;7.30;80.40
4306;DHT22;2166;49.926;8.608;2022-11-20T10:26:31;7.50;80.30
4306;DHT22;2166;49.926;8.608;2022-11-20T10:29:06;7.70;79.30
4306;DHT22;2166;49.926;8.608;2022-11-20T10:31:39;7.70;78.70
4306;DHT22;2166;49.926;8.608;2022-11-20T10:34:12;7.60;78.70
4306;DHT22;2166;49.926;8.608;2022-11-20T10:36:49;7.40;78.50
4306;DHT22;2166;49.926;8.608;2022-11-20T10:39:22;7.30;79.20
4306;DHT22;2166;49.926;8.608;2022-11-20T10:41:52;7.20;79.70
4306;DHT22;2166;49.926;8.608;2022-11-20T10:44:21;7.10;79.80
4306;DHT22;2166;49.926;8.608;2022-11-20T10:47:05;7.00;80.00
4306;DHT22;2166;49.926;8.608;2022-11-20T10:49:33;7.00;80.30
4306;DHT22;2166;49.926;8.608;2022-11-20T10:52:04;7.00;80.40
4306;DHT22;2166;49.926;8.608;2022-11-20T10:54:35;6.90;80.50
4306;DHT22;2166;49.926;8.608;2022-11-20T10:57:07;6.90;80.30
4306;DHT22;2166;49.926;8.608;2022-11-20T10:59:50;6.80;80.40
4306;DHT22;2166;49.926;8.608;2022-11-20T11:02:24;6.80;80.80
4306;DHT22;2166;49.926;8.608;2022-11-20T11:04:59;6.70;80.40
4306;DHT22;2166;49.926;8.608;2022-11-20T11:07:29;6.60;80.60
4306;DHT22;2166;49.926;8.608;2022-11-20T11:09:58;6.50;81.00
4306;DHT22;2166;49.926;8.608;2022-11-20T11:12:27;6.50;81.40
4306;DHT22;2166;49.926;8.608;2022-11-20T11:14:56;6.30;81.50
4306;DHT22;2166;49.926;8.608;2022-11-20T11:17:32;6.10;81.80
4306;DHT22;2166;49.926;8.608;2022-11-20T11:20:04;6.10;82.30
4306;DHT22;2166;49.926;8.608;2022-11-20T11:22:33;6.10;82.50
4306;DHT22;2166;49.926;8.608;2022-11-20T11:25:07;6.20;82.50
4306;DHT22;2166;49.926;8.608;2022-11-20T11:27:45;6.20;82.60
4306;DHT22;2166;49.926;8.608;2022-11-20T11:30:17;6.30;82.40
4306;DHT22;2166;49.926;8.608;2022-11-20T11:32:47;6.30;82.20
4306;DHT22;2166;49.926;8.608;2022-11-20T11:35:22;6.30;82.20
4306;DHT22;2166;49.926;8.608;2022-11-20T11:37:51;6.30;82.50
4306;DHT22;2166;49.926;8.608;2022-11-20T11:40:21;6.30;82.30
4306;DHT22;2166;49.926;8.608;2022-11-20T11:42:52;6.30;82.40
4306;DHT22;2166;49.926;8.608;2022-11-20T11:45:21;6.20;82.60
4306;DHT22;2166;49.926;8.608;2022-11-20T11:47:50;6.30;82.70
4306;DHT22;2166;49.926;8.608;2022-11-20T11:50:20;6.30;82.80
4306;DHT22;2166;49.926;8.608;2022-11-20T11:52:50;6.40;82.70
4306;DHT22;2166;49.926;8.608;2022-11-20T11:55:21;6.40;82.60
4306;DHT22;2166;49.926;8.608;2022-11-20T11:57:53;6.40;82.70
4306;DHT22;2166;49.926;8.608;2022-11-20T12:00:22;6.50;82.50
4306;DHT22;2166;49.926;8.608;2022-11-20T12:02:56;6.70;82.70
4306;DHT22;2166;49.926;8.608;2022-11-20T12:05:26;6.70;82.20
4306;DHT22;2166;49.926;8.608;2022-11-20T12:07:55;6.60;82.50
4306;DHT22;2166;49.926;8.608;2022-11-20T12:10:29;6.60;82.50
4306;DHT22;2166;49.926;8.608;2022-11-20T12:13:02;6.60;82.50
4306;DHT22;2166;49.926;8.608;2022-11-20T12:15:33;6.70;82.40
4306;DHT22;2166;49.926;8.608;2022-11-20T12:18:04;6.80;82.50
4306;DHT22;2166;49.926;8.608;2022-11-20T12:20:39;7.00;82.70
4306;DHT22;2166;49.926;8.608;2022-11-20T12:23:09;7.10;81.90
4306;DHT22;2166;49.926;8.608;2022-11-20T12:25:42;7.10;82.10
4306;DHT22;2166;49.926;8.608;2022-11-20T12:28:24;7.00;81.50
4306;DHT22;2166;49.926;8.608;2022-11-20T12:31:00;7.00;82.20
4306;DHT22;2166;49.926;8.608;2022-11-20T12:33:35;6.90;82.20
4306;DHT22;2166;49.926;8.608;2022-11-20T12:36:07;7.00;82.40
4306;DHT22;2166;49.926;8.608;2022-11-20T12:38:43;7.10;82.40
4306;DHT22;2166;49.926;8.608;2022-11-20T12:41:15;7.30;81.70
4306;DHT22;2166;49.926;8.608;2022-11-20T12:44:16;7.40;81.60
4306;DHT22;2166;49.926;8.608;2022-11-20T12:47:09;7.50;81.40
4306;DHT22;2166;49.926;8.608;2022-11-20T12:49:44;7.50;81.30
4306;DHT22;2166;49.926;8.608;2022-11-20T12:52:18;7.40;81.10
4306;DHT22;2166;49.926;8.608;2022-11-20T12:54:53;7.10;80.90
4306;DHT22;2166;49.926;8.608;2022-11-20T12:57:27;7.10;81.70
4306;DHT22;2166;49.926;8.608;2022-11-20T13:00:03;7.10;82.10
4306;DHT22;2166;49.926;8.608;2022-11-20T13:02:37;7.20;82.10
4306;DHT22;2166;49.926;8.608;2022-11-20T13:05:20;7.40;82.00
4306;DHT22;2166;49.926;8.608;2022-11-20T13:07:50;7.30;81.60
4306;DHT22;2166;49.926;8.608;2022-11-20T13:10:21;7.10;81.90
4306;DHT22;2166;49.926;8.608;2022-11-20T13:12:51;7.10;82.20
4306;DHT22;2166;49.926;8.608;2022-11-20T13:15:26;6.90;82.40
4306;DHT22;2166;49.926;8.608;2022-11-20T13:17:57;6.70;82.20
4306;DHT22;2166;49.926;8.608;2022-11-20T13:20:28;6.60;82.70
4306;DHT22;2166;49.926;8.608;2022-11-20T13:22:57;6.50;83.00
4306;DHT22;2166;49.926;8.608;2022-11-20T13:25:26;6.50;83.10
4306;DHT22;2166;49.926;8.608;2022-11-20T13:27:54;6.60;83.20
4306;DHT22;2166;49.926;8.608;2022-11-20T13:30:23;6.50;83.30
4306;DHT22;2166;49.926;8.608;2022-11-20T13:32:52;6.60;83.60
4306;DHT22;2166;49.926;8.608;2022-11-20T13:35:24;6.80;83.80
4306;DHT22;2166;49.926;8.608;2022-11-20T13:38:00;7.00;83.60
4306;DHT22;2166;49.926;8.608;2022-11-20T13:40:29;7.30;83.50
4306;DHT22;2166;49.926;8.608;2022-11-20T13:43:01;7.50;83.10
4306;DHT22;2166;49.926;8.608;2022-11-20T13:45:30;7.60;82.90
4306;DHT22;2166;49.926;8.608;2022-11-20T13:48:00;7.70;82.80
4306;DHT22;2166;49.926;8.608;2022-11-20T13:50:39;7.80;82.30
4306;DHT22;2166;49.926;8.608;2022-11-20T13:53:12;8.00;82.30
4306;DHT22;2166;49.926;8.608;2022-11-20T13:55:45;8.10;82.20
4306;DHT22;2166;49.926;8.608;2022-11-20T13:58:19;8.20;82.00
4306;DHT22;2166;49.926;8.608;2022-11-20T14:00:51;8.20;81.70
4306;DHT22;2166;49.926;8.608;2022-11-20T14:03:23;8.30;81.60
4306;DHT22;2166;49.926;8.608;2022-11-20T14:06:11;8.40;81.30
4306;DHT22;2166;49.926;8.608;2022-11-20T14:08:43;8.50;81.40
4306;DHT22;2166;49.926;8.608;2022-11-20T14:11:14;8.60;81.50
4306;DHT22;2166;49.926;8.608;2022-11-20T14:13:52;8.70;81.30
4306;DHT22;2166;49.926;8.608;2022-11-20T14:16:20;8.70;81.10
4306;DHT22;2166;49.926;8.608;2022-11-20T14:18:49;8.70;80.70
4306;DHT22;2166;49.926;8.608;2022-11-20T14:21:26;8.60;80.70
4306;DHT22;2166;49.926;8.608;2022-11-20T14:24:09;8.50;80.60
4306;DHT22;2166;49.926;8.608;2022-11-20T14:26:38;8.30;80.80
4306;DHT22;2166;49.926;8.608;2022-11-20T14:29:11;8.20;81.20
4306;DHT22;2166;49.926;8.608;2022-11-20T14:31:40;7.90;81.40
4306;DHT22;2166;49.926;8.608;2022-11-20T14:34:10;7.70;81.70
4306;DHT22;2166;49.926;8.608;2022-11-20T14:36:40;7.50;82.20
4306;DHT22;2166;49.926;8.608;2022-11-20T14:39:12;7.30;82.40
4306;DHT22;2166;49.926;8.608;2022-11-20T14:41:50;7.20;82.90
4306;DHT22;2166;49.926;8.608;2022-11-20T14:44:20;7.20;83.10
4306;DHT22;2166;49.926;8.608;2022-11-20T14:46:53;7.00;83.20
4306;DHT22;2166;49.926;8.608;2022-11-20T14:49:22;7.00;83.40
4306;DHT22;2166;49.926;8.608;2022-11-20T14:51:58;6.90;83.50
4306;DHT22;2166;49.926;8.608;2022-11-20T14:54:28;6.90;83.60
4306;DHT22;2166;49.926;8.608;2022-11-20T14:56:58;6.70;83.70
4306;DHT22;2166;49.926;8.608;2022-11-20T14:59:27;6.60;83.90
4306;DHT22;2166;49.926;8.608;2022-11-20T15:01:57;6.50;83.90
4306;DHT22;2166;49.926;8.608;2022-11-20T15:04:26;6.50;84.10
4306;DHT22;2166;49.926;8.608;2022-11-20T15:06:58;6.60;84.30
4306;DHT22;2166;49.926;8.608;2022-11-20T15:09:28;6.60;84.40
4306;DHT22;2166;49.926;8.608;2022-11-20T15:11:56;6.70;84.40
4306;DHT22;2166;49.926;8.608;2022-11-20T15:14:25;6.70;84.40
4306;DHT22;2166;49.926;8.608;2022-11-20T15:16:55;6.60;84.20
4306;DHT22;2166;49.926;8.608;2022-11-20T15:19:24;6.60;84.30
4306;DHT22;2166;49.926;8.608;2022-11-20T15:21:52;6.50;84.20
4306;DHT22;2166;49.926;8.608;2022-11-20T15:24:20;6.50;84.10
4306;DHT22;2166;49.926;8.608;2022-11-20T15:26:50;6.50;84.30
4306;DHT22;2166;49.926;8.608;2022-11-20T15:29:22;6.50;84.20
4306;DHT22;2166;49.926;8.608;2022-11-20T15:31:51;6.50;84.30
4306;DHT22;2166;49.926;8.608;2022-11-20T15:34:20;6.50;84.30
4306;DHT22;2166;49.926;8.608;2022-11-20T15:36:49;6.50;84.20
4306;DHT22;2166;49.926;8.608;2022-11-20T15:39:18;6.50;84.20
4306;DHT22;2166;49.926;8.608;2022-11-20T15:41:45;6.50;84.20
4306;DHT22;2166;49.926;8.608;2022-11-20T15:44:15;6.60;84.20
4306;DHT22;2166;49.926;8.608;2022-11-20T15:46:43;6.60;84.20
4306;DHT22;2166;49.926;8.608;2022-11-20T15:49:14;6.60;84.20
4306;DHT22;2166;49.926;8.608;2022-11-20T15:51:43;6.60;84.10
4306;DHT22;2166;49.926;8.608;2022-11-20T15:54:13;6.70;84.10
4306;DHT22;2166;49.926;8.608;2022-11-20T15:56:44;6.70;84.10
4306;DHT22;2166;49.926;8.608;2022-11-20T15:59:12;6.80;84.00
4306;DHT22;2166;49.926;8.608;2022-11-20T16:01:43;6.80;83.90
4306;DHT22;2166;49.926;8.608;2022-11-20T16:04:12;6.80;83.90
4306;DHT22;2166;49.926;8.608;2022-11-20T16:06:40;6.80;83.90
4306;DHT22;2166;49.926;8.608;2022-11-20T16:09:09;6.80;83.90
4306;DHT22;2166;49.926;8.608;2022-11-20T16:11:37;6.70;83.80
4306;DHT22;2166;49.926;8.608;2022-11-20T16:14:05;6.70;83.90
4306;DHT22;2166;49.926;8.608;2022-11-20T16:16:53;6.70;83.90
4306;DHT22;2166;49.926;8.608;2022-11-20T16:19:24;6.70;83.80
4306;DHT22;2166;49.926;8.608;2022-11-20T16:21:52;6.70;83.90
4306;DHT22;2166;49.926;8.608;2022-11-20T16:24:27;6.70;83.90
4306;DHT22;2166;49.926;8.608;2022-11-20T16:26:55;6.80;83.90
4306;DHT22;2166;49.926;8.608;2022-11-20T16:29:23;6.70;83.90
4306;DHT22;2166;49.926;8.608;2022-11-20T16:31:51;6.80;83.90
4306;DHT22;2166;49.926;8.608;2022-11-20T16:34:21;6.80;84.00
4306;DHT22;2166;49.926;8.608;2022-11-20T16:36:49;6.80;83.80
4306;DHT22;2166;49.926;8.608;2022-11-20T16:39:18;6.90;83.80